Centreville, Illinois
Current Conditions -  °F | °C
As of 9:53 PM on Tuesday 21 Oct 2014 (Local Time) from KCPS Reporting Station
Clear Clear  
Wind Chill: 50°   Ceiling: Unl
Heat Index: 50°   Visibility: 10mi
Dew Point: 42°   Wind: 3mph
Humidity: 74%   Direction: 70°ENE
Pressure: 30.19"   Gusts: NA
Location:  38.6057°N, 90.1182°W
Report Text: KCPS 220253Z AUTO 07003KT 10SM CLR 10/06 A3019 RMK AO2 SLP224 T01000056 51018
Loading
Personal Weather Stations






























Interactive Weather Map
Tropical Storm Tracking
New forecast layout! Learn more

10-Day Weather Forecast

Advertisements
Track Severe Weather on mobile